sensor_id;sensor_type;location;lat;lon;timestamp;temperature;humidity
70074;DHT22;57445;51.058;3.698;2023-04-03T00:02:05;6.30;97.90
70074;DHT22;57445;51.058;3.698;2023-04-03T00:04:38;6.40;98.40
70074;DHT22;57445;51.058;3.698;2023-04-03T00:07:07;6.10;98.40
70074;DHT22;57445;51.058;3.698;2023-04-03T00:09:41;6.20;98.30
70074;DHT22;57445;51.058;3.698;2023-04-03T00:12:13;6.10;98.20
70074;DHT22;57445;51.058;3.698;2023-04-03T00:14:41;6.00;98.30
70074;DHT22;57445;51.058;3.698;2023-04-03T00:17:09;6.10;98.40
70074;DHT22;57445;51.058;3.698;2023-04-03T00:19:40;6.40;98.10
70074;DHT22;57445;51.058;3.698;2023-04-03T00:22:13;6.40;97.50
70074;DHT22;57445;51.058;3.698;2023-04-03T00:24:41;6.30;97.40
70074;DHT22;57445;51.058;3.698;2023-04-03T00:27:09;6.50;97.70
70074;DHT22;57445;51.058;3.698;2023-04-03T00:29:37;6.30;97.60
70074;DHT22;57445;51.058;3.698;2023-04-03T00:32:07;6.20;97.50
70074;DHT22;57445;51.058;3.698;2023-04-03T00:34:35;6.20;97.40
70074;DHT22;57445;51.058;3.698;2023-04-03T00:37:04;6.30;97.40
70074;DHT22;57445;51.058;3.698;2023-04-03T00:39:32;6.50;97.10
70074;DHT22;57445;51.058;3.698;2023-04-03T00:42:04;6.60;96.80
70074;DHT22;57445;51.058;3.698;2023-04-03T00:47:38;6.60;96.40
70074;DHT22;57445;51.058;3.698;2023-04-03T00:50:11;6.50;96.60
70074;DHT22;57445;51.058;3.698;2023-04-03T00:52:45;6.40;97.10
70074;DHT22;57445;51.058;3.698;2023-04-03T00:55:18;6.20;97.50
70074;DHT22;57445;51.058;3.698;2023-04-03T00:57:47;6.10;97.20
70074;DHT22;57445;51.058;3.698;2023-04-03T01:00:22;6.30;97.30
70074;DHT22;57445;51.058;3.698;2023-04-03T01:02:55;6.30;97.50
70074;DHT22;57445;51.058;3.698;2023-04-03T01:05:28;6.30;97.40
70074;DHT22;57445;51.058;3.698;2023-04-03T01:07:58;6.60;97.30
70074;DHT22;57445;51.058;3.698;2023-04-03T01:10:31;6.60;96.80
70074;DHT22;57445;51.058;3.698;2023-04-03T01:13:00;6.70;96.40
70074;DHT22;57445;51.058;3.698;2023-04-03T01:15:28;6.70;96.70
70074;DHT22;57445;51.058;3.698;2023-04-03T01:18:05;6.60;96.50
70074;DHT22;57445;51.058;3.698;2023-04-03T01:21:13;6.40;96.70
70074;DHT22;57445;51.058;3.698;2023-04-03T01:24:05;6.10;97.20
70074;DHT22;57445;51.058;3.698;2023-04-03T01:26:34;6.20;97.30
70074;DHT22;57445;51.058;3.698;2023-04-03T01:29:02;6.20;97.40
70074;DHT22;57445;51.058;3.698;2023-04-03T01:31:49;6.20;97.30
70074;DHT22;57445;51.058;3.698;2023-04-03T01:34:17;6.20;97.70
70074;DHT22;57445;51.058;3.698;2023-04-03T01:36:50;5.90;98.20
70074;DHT22;57445;51.058;3.698;2023-04-03T01:39:20;6.10;97.90
70074;DHT22;57445;51.058;3.698;2023-04-03T01:41:48;5.80;98.10
70074;DHT22;57445;51.058;3.698;2023-04-03T01:44:16;5.70;98.40
70074;DHT22;57445;51.058;3.698;2023-04-03T01:46:50;5.70;98.70
70074;DHT22;57445;51.058;3.698;2023-04-03T01:49:22;5.60;98.60
70074;DHT22;57445;51.058;3.698;2023-04-03T01:51:50;5.60;98.90
70074;DHT22;57445;51.058;3.698;2023-04-03T01:54:21;6.10;98.90
70074;DHT22;57445;51.058;3.698;2023-04-03T01:56:53;5.90;98.60
70074;DHT22;57445;51.058;3.698;2023-04-03T01:59:21;5.90;98.30
70074;DHT22;57445;51.058;3.698;2023-04-03T02:01:51;5.90;98.20
70074;DHT22;57445;51.058;3.698;2023-04-03T02:04:24;5.70;98.70
70074;DHT22;57445;51.058;3.698;2023-04-03T02:06:51;5.80;98.90
70074;DHT22;57445;51.058;3.698;2023-04-03T02:09:24;5.60;99.00
70074;DHT22;57445;51.058;3.698;2023-04-03T02:11:55;5.50;99.40
70074;DHT22;57445;51.058;3.698;2023-04-03T02:14:22;5.50;99.60
70074;DHT22;57445;51.058;3.698;2023-04-03T02:16:52;5.40;99.70
70074;DHT22;57445;51.058;3.698;2023-04-03T02:19:19;5.40;99.80
70074;DHT22;57445;51.058;3.698;2023-04-03T02:21:47;5.40;99.90
70074;DHT22;57445;51.058;3.698;2023-04-03T02:24:15;5.50;99.90
70074;DHT22;57445;51.058;3.698;2023-04-03T02:26:45;5.40;99.90
70074;DHT22;57445;51.058;3.698;2023-04-03T02:29:17;5.40;99.90
70074;DHT22;57445;51.058;3.698;2023-04-03T02:31:52;5.40;99.90
70074;DHT22;57445;51.058;3.698;2023-04-03T02:34:19;5.40;99.90
70074;DHT22;57445;51.058;3.698;2023-04-03T02:36:47;5.40;99.90
70074;DHT22;57445;51.058;3.698;2023-04-03T02:39:17;5.30;99.90
70074;DHT22;57445;51.058;3.698;2023-04-03T02:41:50;5.20;99.90
70074;DHT22;57445;51.058;3.698;2023-04-03T02:44:22;5.30;99.90
70074;DHT22;57445;51.058;3.698;2023-04-03T02:46:52;5.40;99.90
70074;DHT22;57445;51.058;3.698;2023-04-03T02:49:20;5.50;99.90
70074;DHT22;57445;51.058;3.698;2023-04-03T02:51:47;5.60;99.70
70074;DHT22;57445;51.058;3.698;2023-04-03T02:54:15;5.80;99.10
70074;DHT22;57445;51.058;3.698;2023-04-03T02:56:47;5.90;99.00
70074;DHT22;57445;51.058;3.698;2023-04-03T02:59:20;5.80;98.80
70074;DHT22;57445;51.058;3.698;2023-04-03T03:01:54;5.70;98.60
70074;DHT22;57445;51.058;3.698;2023-04-03T03:04:26;5.70;98.70
70074;DHT22;57445;51.058;3.698;2023-04-03T03:06:54;5.90;98.40
70074;DHT22;57445;51.058;3.698;2023-04-03T03:09:22;5.80;98.20
70074;DHT22;57445;51.058;3.698;2023-04-03T03:11:49;5.70;98.20
70074;DHT22;57445;51.058;3.698;2023-04-03T03:14:17;5.60;98.00
70074;DHT22;57445;51.058;3.698;2023-04-03T03:16:49;5.70;98.00
70074;DHT22;57445;51.058;3.698;2023-04-03T03:19:19;5.60;98.30
70074;DHT22;57445;51.058;3.698;2023-04-03T03:21:46;5.60;98.30
70074;DHT22;57445;51.058;3.698;2023-04-03T03:24:19;5.50;98.20
70074;DHT22;57445;51.058;3.698;2023-04-03T03:26:50;5.70;98.00
70074;DHT22;57445;51.058;3.698;2023-04-03T03:29:17;5.70;97.70
70074;DHT22;57445;51.058;3.698;2023-04-03T03:31:50;5.90;97.60
70074;DHT22;57445;51.058;3.698;2023-04-03T03:34:19;5.80;97.40
70074;DHT22;57445;51.058;3.698;2023-04-03T03:36:51;5.80;97.40
70074;DHT22;57445;51.058;3.698;2023-04-03T03:39:19;5.60;97.60
70074;DHT22;57445;51.058;3.698;2023-04-03T03:41:47;5.70;97.70
70074;DHT22;57445;51.058;3.698;2023-04-03T03:44:20;5.70;97.70
70074;DHT22;57445;51.058;3.698;2023-04-03T03:46:48;5.70;97.50
70074;DHT22;57445;51.058;3.698;2023-04-03T03:49:16;5.90;97.50
70074;DHT22;57445;51.058;3.698;2023-04-03T03:51:45;5.60;97.50
70074;DHT22;57445;51.058;3.698;2023-04-03T03:54:13;5.50;97.80
70074;DHT22;57445;51.058;3.698;2023-04-03T03:56:46;5.30;98.10
70074;DHT22;57445;51.058;3.698;2023-04-03T03:59:14;5.20;98.10
70074;DHT22;57445;51.058;3.698;2023-04-03T04:01:47;5.20;98.50
70074;DHT22;57445;51.058;3.698;2023-04-03T04:04:20;5.20;98.60
70074;DHT22;57445;51.058;3.698;2023-04-03T04:06:49;5.40;98.20
70074;DHT22;57445;51.058;3.698;2023-04-03T04:09:22;5.30;98.30
70074;DHT22;57445;51.058;3.698;2023-04-03T04:11:55;5.30;98.50
70074;DHT22;57445;51.058;3.698;2023-04-03T04:14:27;5.40;98.30
70074;DHT22;57445;51.058;3.698;2023-04-03T04:16:54;5.30;98.30
70074;DHT22;57445;51.058;3.698;2023-04-03T04:19:27;5.40;98.10
70074;DHT22;57445;51.058;3.698;2023-04-03T04:22:00;5.40;98.20
70074;DHT22;57445;51.058;3.698;2023-04-03T04:24:28;5.30;98.40
70074;DHT22;57445;51.058;3.698;2023-04-03T04:26:56;5.20;98.60
70074;DHT22;57445;51.058;3.698;2023-04-03T04:29:28;5.30;98.50
70074;DHT22;57445;51.058;3.698;2023-04-03T04:32:01;5.50;98.40
70074;DHT22;57445;51.058;3.698;2023-04-03T04:34:34;5.60;97.80
70074;DHT22;57445;51.058;3.698;2023-04-03T04:37:04;5.50;97.90
70074;DHT22;57445;51.058;3.698;2023-04-03T04:39:31;5.70;98.10
70074;DHT22;57445;51.058;3.698;2023-04-03T04:41:59;5.40;97.90
70074;DHT22;57445;51.058;3.698;2023-04-03T04:44:31;5.80;97.90
70074;DHT22;57445;51.058;3.698;2023-04-03T04:46:59;5.60;97.60
70074;DHT22;57445;51.058;3.698;2023-04-03T04:49:27;5.40;97.80
70074;DHT22;57445;51.058;3.698;2023-04-03T04:51:59;5.40;97.90
70074;DHT22;57445;51.058;3.698;2023-04-03T04:54:28;5.40;98.00
70074;DHT22;57445;51.058;3.698;2023-04-03T04:57:01;5.30;98.20
70074;DHT22;57445;51.058;3.698;2023-04-03T04:59:29;5.40;98.00
70074;DHT22;57445;51.058;3.698;2023-04-03T05:02:01;5.50;98.00
70074;DHT22;57445;51.058;3.698;2023-04-03T05:04:29;5.50;97.90
70074;DHT22;57445;51.058;3.698;2023-04-03T05:06:57;5.50;98.00
70074;DHT22;57445;51.058;3.698;2023-04-03T05:09:25;5.50;98.10
70074;DHT22;57445;51.058;3.698;2023-04-03T05:11:55;5.50;98.20
70074;DHT22;57445;51.058;3.698;2023-04-03T05:14:27;5.50;98.20
70074;DHT22;57445;51.058;3.698;2023-04-03T05:16:58;5.60;97.90
70074;DHT22;57445;51.058;3.698;2023-04-03T05:19:25;5.60;97.90
70074;DHT22;57445;51.058;3.698;2023-04-03T05:21:53;5.40;98.40
70074;DHT22;57445;51.058;3.698;2023-04-03T05:24:21;5.40;98.40
70074;DHT22;57445;51.058;3.698;2023-04-03T05:26:54;5.50;98.50
70074;DHT22;57445;51.058;3.698;2023-04-03T05:29:22;5.60;98.20
70074;DHT22;57445;51.058;3.698;2023-04-03T05:31:50;5.40;98.30
70074;DHT22;57445;51.058;3.698;2023-04-03T05:34:19;5.40;98.30
70074;DHT22;57445;51.058;3.698;2023-04-03T05:36:51;5.40;98.60
70074;DHT22;57445;51.058;3.698;2023-04-03T05:39:23;5.50;98.50
70074;DHT22;57445;51.058;3.698;2023-04-03T05:41:57;5.40;98.50
70074;DHT22;57445;51.058;3.698;2023-04-03T05:44:25;5.10;99.20
70074;DHT22;57445;51.058;3.698;2023-04-03T05:46:53;5.20;99.60
70074;DHT22;57445;51.058;3.698;2023-04-03T05:49:20;5.20;99.40
70074;DHT22;57445;51.058;3.698;2023-04-03T05:51:48;5.20;99.40
70074;DHT22;57445;51.058;3.698;2023-04-03T05:54:24;5.20;99.50
70074;DHT22;57445;51.058;3.698;2023-04-03T05:57:00;5.20;99.60
70074;DHT22;57445;51.058;3.698;2023-04-03T05:59:28;5.10;99.90
70074;DHT22;57445;51.058;3.698;2023-04-03T06:02:00;5.40;99.80
70074;DHT22;57445;51.058;3.698;2023-04-03T06:04:36;5.40;99.50
70074;DHT22;57445;51.058;3.698;2023-04-03T06:07:11;5.80;99.80
70074;DHT22;57445;51.058;3.698;2023-04-03T06:09:44;6.60;98.10
70074;DHT22;57445;51.058;3.698;2023-04-03T06:12:13;7.50;96.20
70074;DHT22;57445;51.058;3.698;2023-04-03T06:14:46;7.90;95.40
70074;DHT22;57445;51.058;3.698;2023-04-03T06:17:14;7.90;94.70
70074;DHT22;57445;51.058;3.698;2023-04-03T06:19:48;8.60;93.70
70074;DHT22;57445;51.058;3.698;2023-04-03T06:22:16;8.70;93.40
70074;DHT22;57445;51.058;3.698;2023-04-03T06:24:48;9.20;92.60
70074;DHT22;57445;51.058;3.698;2023-04-03T06:27:17;9.60;92.00
70074;DHT22;57445;51.058;3.698;2023-04-03T06:29:45;9.60;90.80
70074;DHT22;57445;51.058;3.698;2023-04-03T06:32:13;9.90;90.90
70074;DHT22;57445;51.058;3.698;2023-04-03T06:34:41;10.00;90.10
70074;DHT22;57445;51.058;3.698;2023-04-03T06:37:11;10.30;90.00
70074;DHT22;57445;51.058;3.698;2023-04-03T06:39:46;9.70;90.00
70074;DHT22;57445;51.058;3.698;2023-04-03T06:42:20;9.30;91.00
70074;DHT22;57445;51.058;3.698;2023-04-03T06:44:47;8.30;91.50
70074;DHT22;57445;51.058;3.698;2023-04-03T06:47:21;8.00;92.20
70074;DHT22;57445;51.058;3.698;2023-04-03T06:49:48;7.80;92.60
70074;DHT22;57445;51.058;3.698;2023-04-03T06:52:16;7.10;94.40
70074;DHT22;57445;51.058;3.698;2023-04-03T06:54:48;6.60;95.00
70074;DHT22;57445;51.058;3.698;2023-04-03T06:57:19;6.50;95.10
70074;DHT22;57445;51.058;3.698;2023-04-03T06:59:47;6.60;95.20
70074;DHT22;57445;51.058;3.698;2023-04-03T07:02:15;6.50;95.40
70074;DHT22;57445;51.058;3.698;2023-04-03T07:04:42;6.50;95.40
70074;DHT22;57445;51.058;3.698;2023-04-03T07:07:15;6.40;95.60
70074;DHT22;57445;51.058;3.698;2023-04-03T07:09:48;6.50;95.60
70074;DHT22;57445;51.058;3.698;2023-04-03T07:12:16;6.50;95.60
70074;DHT22;57445;51.058;3.698;2023-04-03T07:14:50;6.60;95.50
70074;DHT22;57445;51.058;3.698;2023-04-03T07:17:18;6.80;95.00
70074;DHT22;57445;51.058;3.698;2023-04-03T07:19:45;6.90;94.90
70074;DHT22;57445;51.058;3.698;2023-04-03T07:22:18;6.70;95.20
70074;DHT22;57445;51.058;3.698;2023-04-03T07:24:46;6.70;95.20
70074;DHT22;57445;51.058;3.698;2023-04-03T07:27:18;6.70;95.50
70074;DHT22;57445;51.058;3.698;2023-04-03T07:29:51;6.80;95.50
70074;DHT22;57445;51.058;3.698;2023-04-03T07:32:19;7.00;95.50
70074;DHT22;57445;51.058;3.698;2023-04-03T07:34:52;7.20;94.80
70074;DHT22;57445;51.058;3.698;2023-04-03T07:37:19;7.00;95.00
70074;DHT22;57445;51.058;3.698;2023-04-03T07:39:47;6.90;95.20
70074;DHT22;57445;51.058;3.698;2023-04-03T07:42:19;7.10;94.90
70074;DHT22;57445;51.058;3.698;2023-04-03T07:44:47;7.10;95.30
70074;DHT22;57445;51.058;3.698;2023-04-03T07:47:17;7.30;94.80
70074;DHT22;57445;51.058;3.698;2023-04-03T07:49:49;7.20;94.90
70074;DHT22;57445;51.058;3.698;2023-04-03T07:52:21;7.10;95.20
70074;DHT22;57445;51.058;3.698;2023-04-03T07:54:53;6.90;95.70
70074;DHT22;57445;51.058;3.698;2023-04-03T07:57:21;7.00;95.80
70074;DHT22;57445;51.058;3.698;2023-04-03T07:59:53;7.20;95.20
70074;DHT22;57445;51.058;3.698;2023-04-03T08:02:27;7.00;95.50
70074;DHT22;57445;51.058;3.698;2023-04-03T08:04:59;7.10;95.50
70074;DHT22;57445;51.058;3.698;2023-04-03T08:07:27;7.00;95.40
70074;DHT22;57445;51.058;3.698;2023-04-03T08:09:54;7.40;95.00
70074;DHT22;57445;51.058;3.698;2023-04-03T08:12:23;7.60;94.50
70074;DHT22;57445;51.058;3.698;2023-04-03T08:14:59;7.40;94.80
70074;DHT22;57445;51.058;3.698;2023-04-03T08:17:34;7.70;94.80
70074;DHT22;57445;51.058;3.698;2023-04-03T08:20:03;7.90;94.70
70074;DHT22;57445;51.058;3.698;2023-04-03T08:22:32;7.90;94.70
70074;DHT22;57445;51.058;3.698;2023-04-03T08:25:00;8.10;94.20
70074;DHT22;57445;51.058;3.698;2023-04-03T08:27:33;8.00;93.90
70074;DHT22;57445;51.058;3.698;2023-04-03T08:30:01;8.00;94.20
70074;DHT22;57445;51.058;3.698;2023-04-03T08:32:29;8.10;94.00
70074;DHT22;57445;51.058;3.698;2023-04-03T08:34:58;8.10;94.60
70074;DHT22;57445;51.058;3.698;2023-04-03T08:37:26;8.40;93.90
70074;DHT22;57445;51.058;3.698;2023-04-03T08:39:58;8.40;93.30
70074;DHT22;57445;51.058;3.698;2023-04-03T08:42:36;8.60;93.00
70074;DHT22;57445;51.058;3.698;2023-04-03T08:45:13;9.00;91.90
70074;DHT22;57445;51.058;3.698;2023-04-03T08:47:52;9.00;91.90
70074;DHT22;57445;51.058;3.698;2023-04-03T08:50:28;9.10;92.10
70074;DHT22;57445;51.058;3.698;2023-04-03T08:52:58;9.20;91.90
70074;DHT22;57445;51.058;3.698;2023-04-03T08:55:33;9.10;91.90
70074;DHT22;57445;51.058;3.698;2023-04-03T08:58:09;8.60;92.00
70074;DHT22;57445;51.058;3.698;2023-04-03T09:00:46;8.80;92.20
70074;DHT22;57445;51.058;3.698;2023-04-03T09:03:21;9.40;91.30
70074;DHT22;57445;51.058;3.698;2023-04-03T09:05:59;9.30;90.40
70074;DHT22;57445;51.058;3.698;2023-04-03T09:08:29;9.50;89.40
70074;DHT22;57445;51.058;3.698;2023-04-03T09:11:09;9.00;90.10
70074;DHT22;57445;51.058;3.698;2023-04-03T09:13:45;8.60;90.90
70074;DHT22;57445;51.058;3.698;2023-04-03T09:16:25;8.80;90.40
70074;DHT22;57445;51.058;3.698;2023-04-03T09:19:07;8.90;90.00
70074;DHT22;57445;51.058;3.698;2023-04-03T09:21:46;9.30;89.20
70074;DHT22;57445;51.058;3.698;2023-04-03T09:24:17;9.40;89.50
70074;DHT22;57445;51.058;3.698;2023-04-03T09:26:48;9.00;90.10
70074;DHT22;57445;51.058;3.698;2023-04-03T09:29:23;8.80;90.00
70074;DHT22;57445;51.058;3.698;2023-04-03T09:31:58;8.70;87.90
70074;DHT22;57445;51.058;3.698;2023-04-03T09:34:32;8.60;87.80
70074;DHT22;57445;51.058;3.698;2023-04-03T09:37:35;8.80;87.60
70074;DHT22;57445;51.058;3.698;2023-04-03T09:40:04;9.00;87.50
70074;DHT22;57445;51.058;3.698;2023-04-03T09:42:40;9.00;85.50
70074;DHT22;57445;51.058;3.698;2023-04-03T09:45:24;9.00;85.70
70074;DHT22;57445;51.058;3.698;2023-04-03T09:48:06;9.20;85.70
70074;DHT22;57445;51.058;3.698;2023-04-03T09:50:53;9.60;84.40
70074;DHT22;57445;51.058;3.698;2023-04-03T09:53:33;9.40;83.70
70074;DHT22;57445;51.058;3.698;2023-04-03T09:56:05;9.20;83.40
70074;DHT22;57445;51.058;3.698;2023-04-03T09:59:07;9.50;82.70
70074;DHT22;57445;51.058;3.698;2023-04-03T10:01:36;10.00;82.20
70074;DHT22;57445;51.058;3.698;2023-04-03T10:04:08;10.50;80.60
70074;DHT22;57445;51.058;3.698;2023-04-03T10:06:37;10.40;80.20
70074;DHT22;57445;51.058;3.698;2023-04-03T10:09:19;10.00;80.20
70074;DHT22;57445;51.058;3.698;2023-04-03T10:12:10;10.00;80.60
70074;DHT22;57445;51.058;3.698;2023-04-03T10:14:39;9.50;80.40
70074;DHT22;57445;51.058;3.698;2023-04-03T10:17:18;9.30;82.00
70074;DHT22;57445;51.058;3.698;2023-04-03T10:19:53;9.60;81.30
70074;DHT22;57445;51.058;3.698;2023-04-03T10:22:33;9.70;80.90
70074;DHT22;57445;51.058;3.698;2023-04-03T10:25:15;9.70;80.20
70074;DHT22;57445;51.058;3.698;2023-04-03T10:27:54;9.80;80.20
70074;DHT22;57445;51.058;3.698;2023-04-03T10:30:34;9.60;81.40
70074;DHT22;57445;51.058;3.698;2023-04-03T10:33:13;9.60;79.80
70074;DHT22;57445;51.058;3.698;2023-04-03T10:35:53;9.90;79.20
70074;DHT22;57445;51.058;3.698;2023-04-03T10:38:33;10.10;77.50
70074;DHT22;57445;51.058;3.698;2023-04-03T10:41:15;10.10;77.10
70074;DHT22;57445;51.058;3.698;2023-04-03T10:43:56;9.90;78.10
70074;DHT22;57445;51.058;3.698;2023-04-03T10:46:31;9.90;78.20
70074;DHT22;57445;51.058;3.698;2023-04-03T10:49:21;10.00;77.80
70074;DHT22;57445;51.058;3.698;2023-04-03T10:51:58;10.30;77.60
70074;DHT22;57445;51.058;3.698;2023-04-03T10:54:37;10.50;74.70
70074;DHT22;57445;51.058;3.698;2023-04-03T10:57:09;10.60;71.70
70074;DHT22;57445;51.058;3.698;2023-04-03T10:59:41;10.80;71.30
70074;DHT22;57445;51.058;3.698;2023-04-03T11:02:16;11.00;70.00
70074;DHT22;57445;51.058;3.698;2023-04-03T11:04:50;10.70;66.30
70074;DHT22;57445;51.058;3.698;2023-04-03T11:07:26;10.80;68.70
70074;DHT22;57445;51.058;3.698;2023-04-03T11:10:05;10.70;67.40
70074;DHT22;57445;51.058;3.698;2023-04-03T11:12:44;10.60;69.40
70074;DHT22;57445;51.058;3.698;2023-04-03T11:15:15;10.70;69.00
70074;DHT22;57445;51.058;3.698;2023-04-03T11:17:53;10.80;68.50
70074;DHT22;57445;51.058;3.698;2023-04-03T11:20:25;11.10;68.30
70074;DHT22;57445;51.058;3.698;2023-04-03T11:23:01;11.50;66.50
70074;DHT22;57445;51.058;3.698;2023-04-03T11:25:32;11.70;66.00
70074;DHT22;57445;51.058;3.698;2023-04-03T11:28:13;11.50;66.00
70074;DHT22;57445;51.058;3.698;2023-04-03T11:30:46;11.20;65.30
70074;DHT22;57445;51.058;3.698;2023-04-03T11:33:32;11.00;65.50
70074;DHT22;57445;51.058;3.698;2023-04-03T11:36:12;10.70;65.60
70074;DHT22;57445;51.058;3.698;2023-04-03T11:38:52;10.60;65.10
70074;DHT22;57445;51.058;3.698;2023-04-03T11:41:26;11.10;64.70
70074;DHT22;57445;51.058;3.698;2023-04-03T11:44:01;11.50;63.70
70074;DHT22;57445;51.058;3.698;2023-04-03T11:46:59;11.80;61.80
70074;DHT22;57445;51.058;3.698;2023-04-03T11:49:57;12.10;59.20
70074;DHT22;57445;51.058;3.698;2023-04-03T11:53:02;12.20;58.60
70074;DHT22;57445;51.058;3.698;2023-04-03T11:55:54;12.20;56.70
70074;DHT22;57445;51.058;3.698;2023-04-03T11:58:24;11.60;55.40
70074;DHT22;57445;51.058;3.698;2023-04-03T12:01:03;11.50;55.40
70074;DHT22;57445;51.058;3.698;2023-04-03T12:06:53;12.50;53.70
70074;DHT22;57445;51.058;3.698;2023-04-03T12:12:29;12.30;53.40
70074;DHT22;57445;51.058;3.698;2023-04-03T12:15:22;11.70;56.30
70074;DHT22;57445;51.058;3.698;2023-04-03T12:17:56;11.90;59.80
70074;DHT22;57445;51.058;3.698;2023-04-03T12:20:53;11.70;56.70
70074;DHT22;57445;51.058;3.698;2023-04-03T12:23:28;12.20;54.80
70074;DHT22;57445;51.058;3.698;2023-04-03T12:26:02;12.20;57.40
70074;DHT22;57445;51.058;3.698;2023-04-03T12:28:39;12.20;57.40
70074;DHT22;57445;51.058;3.698;2023-04-03T12:31:11;12.70;57.00
70074;DHT22;57445;51.058;3.698;2023-04-03T12:34:01;12.60;57.20
70074;DHT22;57445;51.058;3.698;2023-04-03T12:36:39;12.20;58.90
70074;DHT22;57445;51.058;3.698;2023-04-03T12:39:36;11.70;59.30
70074;DHT22;57445;51.058;3.698;2023-04-03T12:42:12;11.80;59.00
70074;DHT22;57445;51.058;3.698;2023-04-03T12:44:52;12.30;58.70
70074;DHT22;57445;51.058;3.698;2023-04-03T12:47:26;12.00;58.20
70074;DHT22;57445;51.058;3.698;2023-04-03T12:50:01;11.70;57.90
70074;DHT22;57445;51.058;3.698;2023-04-03T12:52:37;11.70;57.70
70074;DHT22;57445;51.058;3.698;2023-04-03T12:55:16;11.90;57.70
70074;DHT22;57445;51.058;3.698;2023-04-03T12:57:49;12.00;57.20
70074;DHT22;57445;51.058;3.698;2023-04-03T13:00:30;12.40;56.20
70074;DHT22;57445;51.058;3.698;2023-04-03T13:03:03;12.30;56.00
70074;DHT22;57445;51.058;3.698;2023-04-03T13:05:33;12.40;56.60
70074;DHT22;57445;51.058;3.698;2023-04-03T13:08:10;12.70;55.40
70074;DHT22;57445;51.058;3.698;2023-04-03T13:10:53;12.90;54.20
70074;DHT22;57445;51.058;3.698;2023-04-03T13:13:27;12.10;53.50
70074;DHT22;57445;51.058;3.698;2023-04-03T13:15:59;11.80;54.30
70074;DHT22;57445;51.058;3.698;2023-04-03T13:18:40;11.70;54.40
70074;DHT22;57445;51.058;3.698;2023-04-03T13:21:17;11.60;53.70
70074;DHT22;57445;51.058;3.698;2023-04-03T13:23:49;11.70;54.50
70074;DHT22;57445;51.058;3.698;2023-04-03T13:26:18;12.30;53.90
70074;DHT22;57445;51.058;3.698;2023-04-03T13:28:48;12.20;54.70
70074;DHT22;57445;51.058;3.698;2023-04-03T13:31:25;11.90;52.90
70074;DHT22;57445;51.058;3.698;2023-04-03T13:34:02;12.10;51.00
70074;DHT22;57445;51.058;3.698;2023-04-03T13:36:37;12.20;52.30
70074;DHT22;57445;51.058;3.698;2023-04-03T13:39:22;12.30;52.50
70074;DHT22;57445;51.058;3.698;2023-04-03T13:41:51;12.20;52.70
70074;DHT22;57445;51.058;3.698;2023-04-03T13:44:31;12.20;51.50
70074;DHT22;57445;51.058;3.698;2023-04-03T13:47:17;12.30;51.70
70074;DHT22;57445;51.058;3.698;2023-04-03T13:50:15;12.60;50.90
70074;DHT22;57445;51.058;3.698;2023-04-03T13:52:46;12.60;49.70
70074;DHT22;57445;51.058;3.698;2023-04-03T13:55:23;12.40;47.90
70074;DHT22;57445;51.058;3.698;2023-04-03T13:57:55;12.10;48.20
70074;DHT22;57445;51.058;3.698;2023-04-03T14:00:39;11.90;49.50
70074;DHT22;57445;51.058;3.698;2023-04-03T14:03:16;12.30;47.60
70074;DHT22;57445;51.058;3.698;2023-04-03T14:05:46;12.30;47.20
70074;DHT22;57445;51.058;3.698;2023-04-03T14:08:15;12.40;47.60
70074;DHT22;57445;51.058;3.698;2023-04-03T14:10:43;12.90;47.30
70074;DHT22;57445;51.058;3.698;2023-04-03T14:13:16;13.10;46.40
70074;DHT22;57445;51.058;3.698;2023-04-03T14:15:45;13.20;45.70
70074;DHT22;57445;51.058;3.698;2023-04-03T14:18:15;13.20;45.60
70074;DHT22;57445;51.058;3.698;2023-04-03T14:20:43;12.80;47.90
70074;DHT22;57445;51.058;3.698;2023-04-03T14:23:17;12.70;47.70
70074;DHT22;57445;51.058;3.698;2023-04-03T14:25:49;12.40;46.70
70074;DHT22;57445;51.058;3.698;2023-04-03T14:28:22;12.30;47.50
70074;DHT22;57445;51.058;3.698;2023-04-03T14:30:55;12.30;47.80
70074;DHT22;57445;51.058;3.698;2023-04-03T14:33:28;12.50;47.50
70074;DHT22;57445;51.058;3.698;2023-04-03T14:36:12;12.30;47.00
70074;DHT22;57445;51.058;3.698;2023-04-03T14:38:46;12.10;47.60
70074;DHT22;57445;51.058;3.698;2023-04-03T14:41:21;12.00;47.00
70074;DHT22;57445;51.058;3.698;2023-04-03T14:43:50;11.90;45.80
70074;DHT22;57445;51.058;3.698;2023-04-03T14:46:20;12.20;46.00
70074;DHT22;57445;51.058;3.698;2023-04-03T14:48:49;12.50;45.10
70074;DHT22;57445;51.058;3.698;2023-04-03T14:51:17;12.80;44.30
70074;DHT22;57445;51.058;3.698;2023-04-03T14:53:46;13.00;45.10
70074;DHT22;57445;51.058;3.698;2023-04-03T14:56:23;13.10;45.40
70074;DHT22;57445;51.058;3.698;2023-04-03T14:58:59;13.00;46.20
70074;DHT22;57445;51.058;3.698;2023-04-03T15:01:32;12.70;45.30
70074;DHT22;57445;51.058;3.698;2023-04-03T15:03:59;12.50;45.30
70074;DHT22;57445;51.058;3.698;2023-04-03T15:06:32;12.30;45.60
70074;DHT22;57445;51.058;3.698;2023-04-03T15:09:02;12.20;46.00
70074;DHT22;57445;51.058;3.698;2023-04-03T15:11:35;12.40;45.80
70074;DHT22;57445;51.058;3.698;2023-04-03T15:14:02;12.40;45.50
70074;DHT22;57445;51.058;3.698;2023-04-03T15:16:31;12.40;46.00
70074;DHT22;57445;51.058;3.698;2023-04-03T15:19:03;12.40;46.70
70074;DHT22;57445;51.058;3.698;2023-04-03T15:21:31;12.80;45.70
70074;DHT22;57445;51.058;3.698;2023-04-03T15:23:59;12.50;46.00
70074;DHT22;57445;51.058;3.698;2023-04-03T15:26:33;12.50;47.20
70074;DHT22;57445;51.058;3.698;2023-04-03T15:29:06;12.60;46.40
70074;DHT22;57445;51.058;3.698;2023-04-03T15:31:42;12.60;47.10
70074;DHT22;57445;51.058;3.698;2023-04-03T15:34:09;12.80;45.40
70074;DHT22;57445;51.058;3.698;2023-04-03T15:36:37;12.50;45.10
70074;DHT22;57445;51.058;3.698;2023-04-03T15:39:09;12.40;45.50
70074;DHT22;57445;51.058;3.698;2023-04-03T15:41:39;12.30;46.40
70074;DHT22;57445;51.058;3.698;2023-04-03T15:44:11;12.30;46.00
70074;DHT22;57445;51.058;3.698;2023-04-03T15:46:44;12.30;47.20
70074;DHT22;57445;51.058;3.698;2023-04-03T15:49:18;12.20;46.50
70074;DHT22;57445;51.058;3.698;2023-04-03T15:51:46;12.40;47.30
70074;DHT22;57445;51.058;3.698;2023-04-03T15:54:14;12.70;46.60
70074;DHT22;57445;51.058;3.698;2023-04-03T15:56:49;12.70;45.20
70074;DHT22;57445;51.058;3.698;2023-04-03T15:59:21;12.70;45.30
70074;DHT22;57445;51.058;3.698;2023-04-03T16:01:55;12.60;45.60
70074;DHT22;57445;51.058;3.698;2023-04-03T16:04:24;12.40;45.50
70074;DHT22;57445;51.058;3.698;2023-04-03T16:06:52;12.20;45.70
70074;DHT22;57445;51.058;3.698;2023-04-03T16:09:24;11.90;46.60
70074;DHT22;57445;51.058;3.698;2023-04-03T16:11:54;11.80;46.90
70074;DHT22;57445;51.058;3.698;2023-04-03T16:14:22;12.00;46.90
70074;DHT22;57445;51.058;3.698;2023-04-03T16:16:50;12.30;46.00
70074;DHT22;57445;51.058;3.698;2023-04-03T16:19:22;12.20;45.40
70074;DHT22;57445;51.058;3.698;2023-04-03T16:21:50;12.10;46.10
70074;DHT22;57445;51.058;3.698;2023-04-03T16:24:18;11.80;45.60
70074;DHT22;57445;51.058;3.698;2023-04-03T16:26:46;11.90;45.70